createdAt,value
2022-12-11T00:00:26.391Z,-2.19
2022-12-11T00:01:26.377Z,-2.11
2022-12-11T00:02:26.485Z,-2.04
2022-12-11T00:03:26.387Z,-2.11
2022-12-11T00:04:26.373Z,-2.08
2022-12-11T00:05:26.344Z,-2.04
2022-12-11T00:06:26.328Z,-2.18
2022-12-11T00:07:26.337Z,-2.16
2022-12-11T00:08:26.626Z,-2.16
2022-12-11T00:09:26.322Z,-2.25
2022-12-11T00:10:26.329Z,-2.32
2022-12-11T00:11:26.321Z,-2.35
2022-12-11T00:12:26.298Z,-2.40
2022-12-11T00:13:26.308Z,-2.38
2022-12-11T00:14:26.360Z,-2.35
2022-12-11T00:15:26.283Z,-2.16
2022-12-11T00:16:27.221Z,-2.08
2022-12-11T00:17:26.271Z,-2.13
2022-12-11T00:18:26.263Z,-2.01
2022-12-11T00:19:26.262Z,-2.11
2022-12-11T00:20:26.305Z,-1.98
2022-12-11T00:21:26.253Z,-2.03
2022-12-11T00:22:26.227Z,-2.06
2022-12-11T00:23:26.244Z,-2.00
2022-12-11T00:24:26.224Z,-1.96
2022-12-11T00:25:26.218Z,-2.06
2022-12-11T00:26:26.282Z,-1.98
2022-12-11T00:27:26.225Z,-2.03
2022-12-11T00:28:26.206Z,-1.96
2022-12-11T00:29:26.205Z,-2.04
2022-12-11T00:30:26.199Z,-2.01
2022-12-11T00:31:26.250Z,-1.90
2022-12-11T00:32:28.332Z,-1.92
2022-12-11T00:33:26.182Z,-1.92
2022-12-11T00:34:26.176Z,-2.03
2022-12-11T00:35:26.153Z,-1.92
2022-12-11T00:36:26.166Z,-1.92
2022-12-11T00:37:26.168Z,-2.00
2022-12-11T00:38:26.208Z,-1.95
2022-12-11T00:39:26.149Z,-2.01
2022-12-11T00:40:26.132Z,-2.04
2022-12-11T00:41:26.127Z,-2.08
2022-12-11T00:42:26.116Z,-2.00
2022-12-11T00:43:26.106Z,-2.01
2022-12-11T00:44:26.155Z,-1.96
2022-12-11T00:45:26.099Z,-2.00
2022-12-11T00:46:26.136Z,-2.03
2022-12-11T00:47:26.093Z,-2.18
2022-12-11T00:48:26.083Z,-2.16
2022-12-11T00:49:26.094Z,-2.08
2022-12-11T00:50:26.145Z,-2.07
2022-12-11T00:51:26.079Z,-2.21
2022-12-11T00:52:26.096Z,-2.07
2022-12-11T00:53:26.077Z,-2.14
2022-12-11T00:54:26.068Z,-2.10
2022-12-11T00:55:26.043Z,-2.26
2022-12-11T00:56:26.099Z,-2.11
2022-12-11T00:57:26.023Z,-2.13
2022-12-11T00:58:26.038Z,-2.06
2022-12-11T00:59:26.007Z,-2.10
2022-12-11T01:00:26.000Z,-2.04
2022-12-11T01:01:26.043Z,-2.07
2022-12-11T01:02:26.130Z,-2.04
2022-12-11T01:03:26.006Z,-1.95
2022-12-11T01:04:26.114Z,-1.98
2022-12-11T01:05:25.961Z,-1.88
2022-12-11T01:06:26.006Z,-1.92
2022-12-11T01:07:25.961Z,-2.06
2022-12-11T01:08:26.079Z,-2.06
2022-12-11T01:09:25.975Z,-1.92
2022-12-11T01:10:26.121Z,-2.00
2022-12-11T01:11:25.938Z,-1.93
2022-12-11T01:12:25.951Z,-1.89
2022-12-11T01:13:25.919Z,-2.04
2022-12-11T01:14:26.356Z,-1.98
2022-12-11T01:15:25.919Z,-2.00
2022-12-11T01:16:25.947Z,-2.01
2022-12-11T01:17:25.910Z,-2.11
2022-12-11T01:18:25.888Z,-1.93
2022-12-11T01:19:25.886Z,-1.90
2022-12-11T01:20:25.901Z,-1.88
2022-12-11T01:21:25.851Z,-1.93
2022-12-11T01:22:25.856Z,-2.00
2022-12-11T01:23:25.840Z,-2.14
2022-12-11T01:24:25.848Z,-2.13
2022-12-11T01:25:25.825Z,-2.14
2022-12-11T01:26:25.884Z,-2.14
2022-12-11T01:27:25.841Z,-2.10
2022-12-11T01:28:25.820Z,-2.24
2022-12-11T01:29:25.828Z,-2.08
2022-12-11T01:30:26.912Z,-2.18
2022-12-11T01:31:25.793Z,-2.13
2022-12-11T01:32:25.852Z,-2.14
2022-12-11T01:33:25.789Z,-2.06
2022-12-11T01:34:25.790Z,-2.16
2022-12-11T01:35:25.791Z,-1.95
2022-12-11T01:36:25.782Z,-2.00
2022-12-11T01:37:25.769Z,-1.96
2022-12-11T01:38:25.794Z,-1.98
2022-12-11T01:39:25.753Z,-1.96
2022-12-11T01:40:25.750Z,-2.10
2022-12-11T01:41:25.746Z,-2.04
2022-12-11T01:42:25.730Z,-2.07
2022-12-11T01:43:25.725Z,-2.13
2022-12-11T01:44:25.784Z,-2.03
2022-12-11T01:45:27.000Z,-2.07
2022-12-11T01:46:25.775Z,-1.95
2022-12-11T01:47:25.696Z,-1.90
2022-12-11T01:48:25.662Z,-1.92
2022-12-11T01:49:25.697Z,-1.92
2022-12-11T01:50:25.728Z,-1.89
2022-12-11T01:51:25.703Z,-2.00
2022-12-11T01:52:25.668Z,-1.85
2022-12-11T01:53:25.669Z,-1.83
2022-12-11T01:54:25.655Z,-1.90
2022-12-11T01:55:25.631Z,-1.98
2022-12-11T01:56:25.681Z,-1.98
2022-12-11T01:57:25.644Z,-1.93
2022-12-11T01:58:25.635Z,-2.06
2022-12-11T01:59:25.623Z,-2.07
2022-12-11T02:00:25.640Z,-1.98
2022-12-11T02:01:25.682Z,-2.00
2022-12-11T02:02:25.724Z,-2.01
2022-12-11T02:03:25.603Z,-2.06
2022-12-11T02:04:25.595Z,-1.98
2022-12-11T02:05:25.589Z,-2.08
2022-12-11T02:06:25.566Z,-2.00
2022-12-11T02:07:25.566Z,-2.01
2022-12-11T02:08:25.712Z,-1.98
2022-12-11T02:09:25.562Z,-1.88
2022-12-11T02:10:25.542Z,-2.01
2022-12-11T02:11:25.548Z,-1.93
2022-12-11T02:12:25.539Z,-1.96
2022-12-11T02:13:25.551Z,-1.93
2022-12-11T02:14:25.584Z,-1.98
2022-12-11T02:15:25.518Z,-2.00
2022-12-11T02:16:25.537Z,-2.03
2022-12-11T02:17:25.511Z,-1.95
2022-12-11T02:18:25.533Z,-2.00
2022-12-11T02:19:25.497Z,-2.06
2022-12-11T02:20:25.762Z,-1.90
2022-12-11T02:21:25.527Z,-1.95
2022-12-11T02:22:25.475Z,-1.95
2022-12-11T02:23:25.472Z,-1.92
2022-12-11T02:24:25.459Z,-2.00
2022-12-11T02:25:25.458Z,-1.88
2022-12-11T02:26:25.503Z,-1.88
2022-12-11T02:27:25.432Z,-1.89
2022-12-11T02:28:25.436Z,-1.90
2022-12-11T02:29:25.438Z,-1.92
2022-12-11T02:30:25.404Z,-1.93
2022-12-11T02:31:25.456Z,-1.95
2022-12-11T02:32:25.460Z,-2.06
2022-12-11T02:33:25.399Z,-1.90
2022-12-11T02:34:25.409Z,-1.90
2022-12-11T02:35:25.373Z,-1.98
2022-12-11T02:36:25.374Z,-2.06
2022-12-11T02:37:25.397Z,-2.03
2022-12-11T02:38:25.413Z,-2.01
2022-12-11T02:39:25.360Z,-1.96
2022-12-11T02:40:25.349Z,-1.96
2022-12-11T02:41:25.348Z,-1.98
2022-12-11T02:42:25.333Z,-1.95
2022-12-11T02:43:25.333Z,-2.10
2022-12-11T02:44:25.392Z,-2.07
2022-12-11T02:45:25.356Z,-1.88
2022-12-11T02:46:25.306Z,-2.06
2022-12-11T02:47:25.314Z,-1.90
2022-12-11T02:48:25.310Z,-1.92
2022-12-11T02:49:25.284Z,-1.85
2022-12-11T02:50:25.335Z,-1.80
2022-12-11T02:51:25.279Z,-1.83
2022-12-11T02:52:25.311Z,-1.82
2022-12-11T02:53:25.255Z,-1.82
2022-12-11T02:54:25.275Z,-1.78
2022-12-11T02:55:25.269Z,-1.85
2022-12-11T02:56:25.302Z,-1.80
2022-12-11T02:57:25.240Z,-1.83
2022-12-11T02:58:25.241Z,-1.77
2022-12-11T02:59:25.226Z,-1.82
2022-12-11T03:00:25.239Z,-1.71
2022-12-11T03:01:25.295Z,-1.80
2022-12-11T03:02:25.309Z,-1.78
2022-12-11T03:03:25.185Z,-1.83
2022-12-11T03:04:25.232Z,-1.86
2022-12-11T03:05:25.225Z,-1.85
2022-12-11T03:06:46.177Z,-1.90
2022-12-11T03:07:25.197Z,-2.03
2022-12-11T03:08:25.297Z,-2.10
2022-12-11T03:09:25.170Z,-2.04
2022-12-11T03:10:25.146Z,-2.11
2022-12-11T03:11:25.158Z,-2.21
2022-12-11T03:12:25.180Z,-2.16
2022-12-11T03:13:25.166Z,-2.16
2022-12-11T03:14:25.204Z,-2.14
2022-12-11T03:15:25.136Z,-2.07
2022-12-11T03:16:25.133Z,-2.13
2022-12-11T03:17:25.115Z,-2.14
2022-12-11T03:18:25.132Z,-1.98
2022-12-11T03:19:25.121Z,-2.00
2022-12-11T03:20:25.148Z,-2.06
2022-12-11T03:21:25.095Z,-2.07
2022-12-11T03:22:25.125Z,-1.95
2022-12-11T03:23:25.067Z,-1.83
2022-12-11T03:24:25.085Z,-1.86
2022-12-11T03:25:25.074Z,-2.01
2022-12-11T03:26:25.418Z,-2.10
2022-12-11T03:27:25.059Z,-2.08
2022-12-11T03:28:25.050Z,-2.11
2022-12-11T03:29:25.046Z,-2.06
2022-12-11T03:30:25.075Z,-2.03
2022-12-11T03:31:25.035Z,-2.16
2022-12-11T03:32:25.059Z,-2.08
2022-12-11T03:33:24.996Z,-1.96
2022-12-11T03:34:24.997Z,-2.22
2022-12-11T03:35:25.007Z,-2.01
2022-12-11T03:36:24.976Z,-2.13
2022-12-11T03:37:24.981Z,-2.14
2022-12-11T03:38:25.042Z,-2.01
2022-12-11T03:39:29.507Z,-2.16
2022-12-11T03:40:24.949Z,-2.21
2022-12-11T03:41:24.961Z,-2.28
2022-12-11T03:42:24.937Z,-2.13
2022-12-11T03:43:24.934Z,-2.10
2022-12-11T03:44:24.979Z,-2.08
2022-12-11T03:45:24.936Z,-2.10
2022-12-11T03:46:24.949Z,-2.16
2022-12-11T03:47:24.945Z,-2.11
2022-12-11T03:48:24.911Z,-2.00
2022-12-11T03:49:24.904Z,-2.16
2022-12-11T03:50:24.952Z,-2.10
2022-12-11T03:51:24.897Z,-2.16
2022-12-11T03:52:24.882Z,-2.18
2022-12-11T03:53:24.883Z,-2.35
2022-12-11T03:54:24.881Z,-2.29
2022-12-11T03:55:24.871Z,-2.35
2022-12-11T03:56:24.917Z,-2.28
2022-12-11T03:57:24.858Z,-2.41
2022-12-11T03:58:24.873Z,-2.41
2022-12-11T03:59:24.861Z,-2.44
2022-12-11T04:00:24.804Z,-2.46
2022-12-11T04:01:24.854Z,-2.40
2022-12-11T04:02:24.896Z,-2.44
2022-12-11T04:03:24.798Z,-2.40
2022-12-11T04:04:24.823Z,-2.38
2022-12-11T04:05:24.805Z,-2.26
2022-12-11T04:06:24.775Z,-2.35
2022-12-11T04:07:24.848Z,-2.44
2022-12-11T04:08:24.909Z,-2.48
2022-12-11T04:09:24.773Z,-2.37
2022-12-11T04:10:24.779Z,-2.33
2022-12-11T04:11:24.755Z,-2.37
2022-12-11T04:12:24.778Z,-2.26
2022-12-11T04:13:24.748Z,-2.35
2022-12-11T04:14:24.769Z,-2.25
2022-12-11T04:15:24.718Z,-2.35
2022-12-11T04:16:24.698Z,-2.37
2022-12-11T04:17:24.746Z,-2.44
2022-12-11T04:18:24.714Z,-2.44
2022-12-11T04:19:24.717Z,-2.50
2022-12-11T04:20:24.740Z,-2.48
2022-12-11T04:21:24.690Z,-2.47
2022-12-11T04:22:24.664Z,-2.37
2022-12-11T04:23:24.667Z,-2.51
2022-12-11T04:24:24.677Z,-2.44
2022-12-11T04:25:24.665Z,-2.43
2022-12-11T04:26:24.720Z,-2.51
2022-12-11T04:27:24.646Z,-2.37
2022-12-11T04:28:24.624Z,-2.37
2022-12-11T04:29:24.643Z,-2.32
2022-12-11T04:30:27.998Z,-2.28
2022-12-11T04:31:24.656Z,-2.41
2022-12-11T04:32:24.953Z,-2.37
2022-12-11T04:33:24.622Z,-2.43
2022-12-11T04:34:24.596Z,-2.38
2022-12-11T04:35:24.596Z,-2.38
2022-12-11T04:36:24.576Z,-2.41
2022-12-11T04:37:24.593Z,-2.43
2022-12-11T04:38:24.622Z,-2.33
2022-12-11T04:39:24.574Z,-2.32
2022-12-11T04:40:24.574Z,-2.33
2022-12-11T04:41:24.577Z,-2.40
2022-12-11T04:42:24.557Z,-2.48
2022-12-11T04:43:24.547Z,-2.47
2022-12-11T04:44:24.589Z,-2.40
2022-12-11T04:45:24.541Z,-2.35
2022-12-11T04:46:24.609Z,-2.41
2022-12-11T04:47:24.523Z,-2.43
2022-12-11T04:48:24.531Z,-2.40
2022-12-11T04:49:24.508Z,-2.41
2022-12-11T04:50:24.564Z,-2.40
2022-12-11T04:51:24.483Z,-2.43
2022-12-11T04:52:24.474Z,-2.43
2022-12-11T04:53:24.484Z,-2.33
2022-12-11T04:54:24.481Z,-2.28
2022-12-11T04:55:24.464Z,-2.26
2022-12-11T04:56:24.491Z,-2.16
2022-12-11T04:57:24.453Z,-2.19
2022-12-11T04:58:24.433Z,-2.35
2022-12-11T04:59:24.445Z,-2.22
2022-12-11T05:00:24.433Z,-2.32
2022-12-11T05:01:24.448Z,-2.33
2022-12-11T05:02:24.532Z,-2.28
2022-12-11T05:03:24.419Z,-2.19
2022-12-11T05:04:24.390Z,-2.32
2022-12-11T05:05:24.418Z,-2.35
2022-12-11T05:06:24.391Z,-2.33
2022-12-11T05:07:24.383Z,-2.24
2022-12-11T05:08:24.535Z,-2.18
2022-12-11T05:09:24.368Z,-2.14
2022-12-11T05:10:24.382Z,-2.28
2022-12-11T05:11:24.346Z,-2.18
2022-12-11T05:12:24.366Z,-2.21
2022-12-11T05:13:24.362Z,-2.11
2022-12-11T05:14:24.408Z,-2.00
2022-12-11T05:15:24.359Z,-2.03
2022-12-11T05:16:24.405Z,-2.03
2022-12-11T05:17:24.327Z,-2.01
2022-12-11T05:18:24.317Z,-2.08
2022-12-11T05:19:24.342Z,-2.14
2022-12-11T05:20:24.357Z,-2.14
2022-12-11T05:21:24.309Z,-2.18
2022-12-11T05:22:24.311Z,-2.16
2022-12-11T05:23:24.287Z,-2.38
2022-12-11T05:24:24.283Z,-2.38
2022-12-11T05:25:24.285Z,-2.35
2022-12-11T05:26:24.308Z,-2.33
2022-12-11T05:27:24.269Z,-2.19
2022-12-11T05:28:24.259Z,-2.21
2022-12-11T05:29:24.244Z,-2.18
2022-12-11T05:30:24.260Z,-2.16
2022-12-11T05:31:24.256Z,-2.01
2022-12-11T05:32:24.507Z,-2.08
2022-12-11T05:33:24.213Z,-2.08
2022-12-11T05:34:24.213Z,-2.18
2022-12-11T05:35:24.214Z,-2.18
2022-12-11T05:36:24.220Z,-2.18
2022-12-11T05:37:24.188Z,-2.16
2022-12-11T05:38:24.236Z,-2.11
2022-12-11T05:39:24.177Z,-2.13
2022-12-11T05:40:24.180Z,-2.13
2022-12-11T05:41:24.181Z,-2.13
2022-12-11T05:42:28.772Z,-2.01
2022-12-11T05:43:24.170Z,-2.04
2022-12-11T05:44:24.200Z,-1.98
2022-12-11T05:45:24.147Z,-1.96
2022-12-11T05:46:24.180Z,-1.95
2022-12-11T05:47:24.136Z,-1.90
2022-12-11T05:48:24.134Z,-1.90
2022-12-11T05:49:29.148Z,-1.92
2022-12-11T05:50:25.199Z,-1.90
2022-12-11T05:51:24.110Z,-1.96
2022-12-11T05:52:24.085Z,-1.98
2022-12-11T05:53:24.094Z,-2.13
2022-12-11T05:54:24.063Z,-2.13
2022-12-11T05:55:24.079Z,-2.21
2022-12-11T05:56:24.131Z,-2.22
2022-12-11T05:57:24.072Z,-2.14
2022-12-11T05:58:24.067Z,-2.22
2022-12-11T05:59:24.057Z,-2.18
2022-12-11T06:00:24.058Z,-2.16
2022-12-11T06:01:24.040Z,-2.08
2022-12-11T06:02:24.129Z,-2.06
2022-12-11T06:03:24.035Z,-2.01
2022-12-11T06:04:24.017Z,-2.08
2022-12-11T06:05:24.021Z,-2.13
2022-12-11T06:06:24.014Z,-2.13
2022-12-11T06:07:24.003Z,-2.13
2022-12-11T06:08:24.080Z,-2.04
2022-12-11T06:09:24.009Z,-2.18
2022-12-11T06:10:23.983Z,-1.98
2022-12-11T06:11:24.482Z,-2.07
2022-12-11T06:12:23.984Z,-2.06
2022-12-11T06:13:23.969Z,-2.13
2022-12-11T06:14:23.978Z,-2.18
2022-12-11T06:15:23.970Z,-2.13
2022-12-11T06:16:23.991Z,-2.10
2022-12-11T06:17:23.940Z,-2.10
2022-12-11T06:18:23.936Z,-2.13
2022-12-11T06:19:23.953Z,-2.21
2022-12-11T06:20:23.998Z,-2.19
2022-12-11T06:21:23.920Z,-2.18
2022-12-11T06:22:23.917Z,-2.11
2022-12-11T06:23:23.918Z,-2.08
2022-12-11T06:24:23.895Z,-2.10
2022-12-11T06:25:23.873Z,-2.00
2022-12-11T06:26:23.953Z,-2.06
2022-12-11T06:27:23.896Z,-2.07
2022-12-11T06:28:23.867Z,-1.98
2022-12-11T06:29:23.872Z,-1.98
2022-12-11T06:30:23.876Z,-2.11
2022-12-11T06:31:24.994Z,-2.22
2022-12-11T06:32:23.833Z,-2.11
2022-12-11T06:33:23.844Z,-2.19
2022-12-11T06:34:23.833Z,-2.21
2022-12-11T06:35:23.844Z,-2.19
2022-12-11T06:36:23.839Z,-2.11
2022-12-11T06:37:24.352Z,-2.10
2022-12-11T06:38:23.826Z,-2.07
2022-12-11T06:39:23.798Z,-1.98
2022-12-11T06:40:23.779Z,-2.00
2022-12-11T06:41:23.784Z,-2.01
2022-12-11T06:42:23.774Z,-2.07
2022-12-11T06:43:23.827Z,-1.96
2022-12-11T06:44:23.755Z,-2.11
2022-12-11T06:45:23.837Z,-1.98
2022-12-11T06:46:23.814Z,-2.04
2022-12-11T06:47:23.732Z,-2.06
2022-12-11T06:48:23.743Z,-2.11
2022-12-11T06:49:23.802Z,-2.16
2022-12-11T06:50:23.722Z,-2.13
2022-12-11T06:51:23.724Z,-2.14
2022-12-11T06:52:23.693Z,-2.14
2022-12-11T06:53:23.703Z,-1.92
2022-12-11T06:54:23.689Z,-1.92
2022-12-11T06:55:23.729Z,-2.01
2022-12-11T06:56:23.700Z,-2.03
2022-12-11T06:57:23.674Z,-2.10
2022-12-11T06:58:23.682Z,-2.06
2022-12-11T06:59:23.666Z,-2.07
2022-12-11T07:00:23.662Z,-2.01
2022-12-11T07:01:23.740Z,-2.16
2022-12-11T07:02:23.645Z,-2.07
2022-12-11T07:03:23.634Z,-2.01
2022-12-11T07:04:23.630Z,-1.90
2022-12-11T07:05:23.630Z,-2.19
2022-12-11T07:06:23.620Z,-2.00
2022-12-11T07:07:23.641Z,-1.93
2022-12-11T07:08:23.658Z,-2.00
2022-12-11T07:09:23.611Z,-1.86
2022-12-11T07:10:23.580Z,-1.89
2022-12-11T07:11:23.604Z,-1.72
2022-12-11T07:12:23.570Z,-1.83
2022-12-11T07:13:23.622Z,-1.82
2022-12-11T07:14:23.559Z,-1.75
2022-12-11T07:15:23.568Z,-1.77
2022-12-11T07:16:23.609Z,-1.83
2022-12-11T07:17:23.559Z,-1.83
2022-12-11T07:18:23.527Z,-1.74
2022-12-11T07:19:23.607Z,-1.77
2022-12-11T07:20:23.545Z,-1.75
2022-12-11T07:21:23.534Z,-1.82
2022-12-11T07:22:23.516Z,-1.90
2022-12-11T07:23:23.516Z,-1.93
2022-12-11T07:24:23.514Z,-1.89
2022-12-11T07:25:23.525Z,-1.82
2022-12-11T07:26:23.508Z,-1.95
2022-12-11T07:27:23.466Z,-1.86
2022-12-11T07:28:23.483Z,-1.89
2022-12-11T07:29:23.466Z,-1.80
2022-12-11T07:30:23.484Z,-1.85
2022-12-11T07:31:23.556Z,-1.78
2022-12-11T07:32:23.614Z,-1.71
2022-12-11T07:33:23.464Z,-1.64
2022-12-11T07:34:23.475Z,-1.59
2022-12-11T07:35:23.444Z,-1.61
2022-12-11T07:36:23.446Z,-1.59
2022-12-11T07:37:23.468Z,-1.64
2022-12-11T07:38:23.428Z,-1.62
2022-12-11T07:39:23.417Z,-1.53
2022-12-11T07:40:23.424Z,-1.62
2022-12-11T07:41:23.407Z,-1.75
2022-12-11T07:42:23.407Z,-1.93
2022-12-11T07:43:23.666Z,-1.82
2022-12-11T07:44:23.404Z,-1.90
2022-12-11T07:45:23.361Z,-1.82
2022-12-11T07:46:23.356Z,-1.82
2022-12-11T07:47:23.365Z,-1.72
2022-12-11T07:48:23.341Z,-1.68
2022-12-11T07:49:23.430Z,-1.59
2022-12-11T07:50:23.330Z,-1.61
2022-12-11T07:51:23.329Z,-1.54
2022-12-11T07:52:23.325Z,-1.54
2022-12-11T07:53:23.314Z,-1.71
2022-12-11T07:54:23.318Z,-1.65
2022-12-11T07:55:23.357Z,-1.71
2022-12-11T07:56:23.297Z,-1.59
2022-12-11T07:57:23.290Z,-1.61
2022-12-11T07:58:23.330Z,-1.56
2022-12-11T07:59:23.280Z,-1.59
2022-12-11T08:00:23.269Z,-1.61
2022-12-11T08:01:23.388Z,-1.68
2022-12-11T08:02:23.356Z,-1.62
2022-12-11T08:03:23.241Z,-1.46
2022-12-11T08:04:23.252Z,-1.43
2022-12-11T08:05:23.237Z,-1.49
2022-12-11T08:06:23.251Z,-1.56
2022-12-11T08:07:23.249Z,-1.49
2022-12-11T08:08:23.257Z,-1.46
2022-12-11T08:09:23.218Z,-1.43
2022-12-11T08:10:23.213Z,-1.32
2022-12-11T08:11:23.205Z,-1.25
2022-12-11T08:12:23.191Z,-1.28
2022-12-11T08:13:23.239Z,-1.21
2022-12-11T08:14:23.161Z,-1.21
2022-12-11T08:15:23.179Z,-1.14
2022-12-11T08:16:23.228Z,-1.17
2022-12-11T08:17:28.778Z,-1.11
2022-12-11T08:18:24.217Z,-1.02
2022-12-11T08:19:23.188Z,-1.03
2022-12-11T08:20:23.138Z,-0.90
2022-12-11T08:21:23.122Z,-0.92
2022-12-11T08:22:23.136Z,-0.95
2022-12-11T08:23:23.105Z,-0.89
2022-12-11T08:24:23.192Z,-0.73
2022-12-11T08:25:23.105Z,-0.85
2022-12-11T08:26:23.093Z,-0.99
2022-12-11T08:27:23.104Z,-1.02
2022-12-11T08:28:23.077Z,-0.83
2022-12-11T08:29:23.105Z,-0.85
2022-12-11T08:30:23.111Z,-0.85
2022-12-11T08:31:23.063Z,-0.97
2022-12-11T08:32:23.039Z,-1.03
2022-12-11T08:33:23.088Z,-0.90
2022-12-11T08:34:23.087Z,-0.80
2022-12-11T08:35:23.060Z,-0.71
2022-12-11T08:36:23.067Z,-0.73
2022-12-11T08:37:23.035Z,-0.70
2022-12-11T08:38:25.623Z,-0.76
2022-12-11T08:39:23.003Z,-0.77
2022-12-11T08:40:23.059Z,-0.81
2022-12-11T08:41:22.999Z,-0.83
2022-12-11T08:42:23.040Z,-0.81
2022-12-11T08:43:22.975Z,-0.95
2022-12-11T08:44:22.998Z,-0.97
2022-12-11T08:45:22.962Z,-0.97
2022-12-11T08:46:23.042Z,-0.99
2022-12-11T08:47:22.943Z,-0.86
2022-12-11T08:48:23.382Z,-0.97
2022-12-11T08:49:22.936Z,-1.00
2022-12-11T08:50:22.964Z,-0.89
2022-12-11T08:51:22.935Z,-1.00
2022-12-11T08:52:22.941Z,-0.95
2022-12-11T08:53:22.896Z,-0.89
2022-12-11T08:54:22.964Z,-0.92
2022-12-11T08:55:22.906Z,-0.74
2022-12-11T08:56:22.911Z,-0.76
2022-12-11T08:57:22.899Z,-0.78
2022-12-11T08:58:22.887Z,-0.78
2022-12-11T08:59:22.871Z,-0.70
2022-12-11T09:00:22.919Z,-0.67
2022-12-11T09:01:22.889Z,-0.85
2022-12-11T09:02:23.009Z,-0.92
2022-12-11T09:03:22.860Z,-0.80
2022-12-11T09:04:22.838Z,-0.70
2022-12-11T09:05:22.852Z,-0.77
2022-12-11T09:06:22.890Z,-0.70
2022-12-11T09:07:22.822Z,-0.77
2022-12-11T09:08:22.893Z,-0.77
2022-12-11T09:09:22.812Z,-0.83
2022-12-11T09:10:22.812Z,-0.95
2022-12-11T09:11:22.801Z,-0.62
2022-12-11T09:12:22.836Z,-0.73
2022-12-11T09:13:22.789Z,-0.73
2022-12-11T09:14:22.780Z,-0.62
2022-12-11T09:15:22.767Z,-0.53
2022-12-11T09:16:22.765Z,-0.44
2022-12-11T09:17:22.764Z,-0.39
2022-12-11T09:18:22.800Z,-0.42
2022-12-11T09:19:24.765Z,-0.38
2022-12-11T09:20:23.763Z,-0.35
2022-12-11T09:21:22.755Z,-0.24
2022-12-11T09:22:22.738Z,-0.30
2022-12-11T09:23:22.715Z,-0.41
2022-12-11T09:24:22.771Z,-0.59
2022-12-11T09:25:22.709Z,-0.56
2022-12-11T09:26:22.711Z,-0.50
2022-12-11T09:27:22.719Z,-0.50
2022-12-11T09:28:22.647Z,-0.50
2022-12-11T09:29:22.688Z,-0.49
2022-12-11T09:30:22.726Z,-0.38
2022-12-11T09:31:22.736Z,-0.31
2022-12-11T09:32:22.661Z,-0.38
2022-12-11T09:33:22.646Z,-0.42
2022-12-11T09:34:27.557Z,-0.44
2022-12-11T09:35:23.713Z,-0.52
2022-12-11T09:36:22.660Z,-0.59
2022-12-11T09:37:22.622Z,-0.59
2022-12-11T09:38:22.620Z,-0.70
2022-12-11T09:39:22.620Z,-0.70
2022-12-11T09:40:22.599Z,-0.76
2022-12-11T09:41:22.643Z,-0.73
2022-12-11T09:42:22.585Z,-0.97
2022-12-11T09:43:22.593Z,-0.89
2022-12-11T09:44:22.568Z,-0.86
2022-12-11T09:45:22.583Z,-0.80
2022-12-11T09:46:24.814Z,-0.67
2022-12-11T09:47:22.601Z,-0.55
2022-12-11T09:48:22.562Z,-0.41
2022-12-11T09:49:22.522Z,-0.47
2022-12-11T09:50:22.523Z,-0.52
2022-12-11T09:51:22.526Z,-0.62
2022-12-11T09:52:22.509Z,-0.65
2022-12-11T09:53:22.779Z,-0.45
2022-12-11T09:54:22.487Z,-0.42
2022-12-11T09:55:22.497Z,-0.35
2022-12-11T09:56:22.502Z,-0.20
2022-12-11T09:57:22.485Z,-0.09
2022-12-11T09:58:22.487Z,-0.20
2022-12-11T09:59:22.538Z,-0.21
2022-12-11T10:00:22.458Z,-0.27
2022-12-11T10:01:22.468Z,-0.23
2022-12-11T10:02:22.487Z,-0.24
2022-12-11T10:03:22.440Z,-0.24
2022-12-11T10:04:22.421Z,-0.37
2022-12-11T10:05:22.506Z,-0.45
2022-12-11T10:06:22.441Z,-0.67
2022-12-11T10:07:22.405Z,-0.78
2022-12-11T10:08:22.435Z,-0.83
2022-12-11T10:09:22.400Z,-0.78
2022-12-11T10:10:22.402Z,-0.81
2022-12-11T10:11:22.438Z,-0.68
2022-12-11T10:12:22.374Z,-0.59
2022-12-11T10:13:22.388Z,-0.65
2022-12-11T10:14:22.370Z,-0.59
2022-12-11T10:15:22.332Z,-0.58
2022-12-11T10:16:22.414Z,-0.56
2022-12-11T10:17:22.417Z,-0.45
2022-12-11T10:18:22.325Z,-0.49
2022-12-11T10:19:22.347Z,-0.53
2022-12-11T10:20:22.324Z,-0.52
2022-12-11T10:21:22.301Z,-0.35
2022-12-11T10:22:22.312Z,-0.19
2022-12-11T10:23:22.383Z,-0.14
2022-12-11T10:24:57.562Z,-0.12
2022-12-11T10:25:23.300Z,-0.12
2022-12-11T10:26:22.296Z,-0.03
2022-12-11T10:27:22.272Z,0.12
2022-12-11T10:28:22.252Z,0.07
2022-12-11T10:29:22.302Z,-0.02
2022-12-11T10:30:22.269Z,0.10
2022-12-11T10:31:22.345Z,-0.02
2022-12-11T10:32:22.247Z,-0.05
2022-12-11T10:33:22.246Z,-0.09
2022-12-11T10:34:22.231Z,0.01
2022-12-11T10:35:22.279Z,-0.03
2022-12-11T10:36:22.226Z,0.10
2022-12-11T10:37:22.215Z,0.05
2022-12-11T10:38:22.196Z,0.13
2022-12-11T10:39:22.217Z,0.08
2022-12-11T10:40:22.188Z,0.15
2022-12-11T10:41:22.238Z,0.13
2022-12-11T10:42:22.177Z,0.20
2022-12-11T10:43:22.170Z,0.26
2022-12-11T10:44:22.188Z,0.28
2022-12-11T10:45:22.171Z,0.37
2022-12-11T10:46:22.207Z,0.41
2022-12-11T10:47:22.230Z,0.44
2022-12-11T10:48:22.152Z,0.53
2022-12-11T10:49:22.150Z,0.63
2022-12-11T10:50:22.132Z,0.62
2022-12-11T10:51:22.112Z,0.45
2022-12-11T10:52:22.111Z,0.48
2022-12-11T10:53:22.133Z,0.62
2022-12-11T10:54:22.097Z,0.43
2022-12-11T10:55:22.089Z,0.68
2022-12-11T10:56:22.089Z,0.64
2022-12-11T10:57:22.077Z,0.64
2022-12-11T10:58:22.069Z,0.59
2022-12-11T10:59:24.129Z,0.41
2022-12-11T11:00:22.062Z,0.26
2022-12-11T11:01:22.090Z,0.17
2022-12-11T11:02:22.029Z,0.30
2022-12-11T11:03:21.991Z,0.25
2022-12-11T11:04:22.018Z,0.28
2022-12-11T11:05:22.051Z,0.19
2022-12-11T11:06:22.005Z,0.02
2022-12-11T11:07:21.991Z,0.08
2022-12-11T11:08:22.030Z,0.04
2022-12-11T11:09:21.995Z,0.16
2022-12-11T11:10:21.981Z,0.19
2022-12-11T11:11:22.005Z,0.48
2022-12-11T11:12:21.998Z,0.19
2022-12-11T11:13:21.948Z,0.37
2022-12-11T11:14:21.938Z,0.48
2022-12-11T11:15:21.940Z,0.57
2022-12-11T11:16:21.979Z,0.57
2022-12-11T11:17:21.950Z,0.70
2022-12-11T11:18:21.903Z,0.72
2022-12-11T11:19:21.892Z,0.53
2022-12-11T11:20:21.901Z,0.23
2022-12-11T11:21:21.875Z,-0.12
2022-12-11T11:22:21.889Z,-0.14
2022-12-11T11:23:21.929Z,0.04
2022-12-11T11:24:21.935Z,0.13
2022-12-11T11:25:21.886Z,0.30
2022-12-11T11:26:21.855Z,0.15
2022-12-11T11:27:21.884Z,0.12
2022-12-11T11:28:21.850Z,0.33
2022-12-11T11:29:21.893Z,0.31
2022-12-11T11:30:21.819Z,0.26
2022-12-11T11:31:21.852Z,0.34
2022-12-11T11:32:21.832Z,0.25
2022-12-11T11:33:21.787Z,0.19
2022-12-11T11:34:21.797Z,0.07
2022-12-11T11:35:21.877Z,0.17
2022-12-11T11:36:21.792Z,0.23
2022-12-11T11:37:21.789Z,0.23
2022-12-11T11:38:21.781Z,0.41
2022-12-11T11:39:21.842Z,0.52
2022-12-11T11:40:21.767Z,0.43
2022-12-11T11:41:21.797Z,0.44
2022-12-11T11:42:21.777Z,0.28
2022-12-11T11:43:21.739Z,0.17
2022-12-11T11:44:21.730Z,0.15
2022-12-11T11:45:21.726Z,0.01
2022-12-11T11:46:21.756Z,-0.01
2022-12-11T11:47:21.745Z,0.16
2022-12-11T11:48:21.714Z,0.22
2022-12-11T11:49:21.713Z,0.20
2022-12-11T11:50:21.700Z,0.22
2022-12-11T11:51:21.696Z,0.04
2022-12-11T11:52:21.674Z,0.13
2022-12-11T11:53:21.764Z,0.15
2022-12-11T11:54:21.656Z,0.20
2022-12-11T11:55:22.843Z,0.19
2022-12-11T11:56:21.663Z,0.26
2022-12-11T11:57:21.658Z,0.30
2022-12-11T11:58:21.632Z,0.19
2022-12-11T11:59:21.697Z,0.20
2022-12-11T12:00:21.618Z,0.26
2022-12-11T12:01:21.594Z,0.17
2022-12-11T12:02:21.608Z,0.01
2022-12-11T12:03:21.606Z,-0.03
2022-12-11T12:04:21.582Z,0.17
2022-12-11T12:05:21.937Z,0.19
2022-12-11T12:06:21.587Z,0.25
2022-12-11T12:07:21.579Z,0.31
2022-12-11T12:08:21.603Z,0.37
2022-12-11T12:09:21.689Z,0.48
2022-12-11T12:10:21.558Z,0.38
2022-12-11T12:11:21.610Z,0.38
2022-12-11T12:12:27.557Z,0.22
2022-12-11T12:13:48.281Z,0.20
2022-12-11T12:14:51.012Z,0.22
2022-12-11T12:15:22.543Z,0.22
2022-12-11T12:16:51.056Z,0.15
2022-12-11T12:17:22.618Z,0.05
2022-12-11T12:18:21.516Z,0.19
2022-12-11T12:19:21.507Z,0.15
2022-12-11T12:20:21.498Z,0.12
2022-12-11T12:21:21.474Z,0.25
2022-12-11T12:22:21.501Z,0.23
2022-12-11T12:23:21.526Z,0.23
2022-12-11T12:24:21.454Z,0.30
2022-12-11T12:25:21.475Z,0.23
2022-12-11T12:26:21.454Z,0.22
2022-12-11T12:27:50.948Z,0.25
2022-12-11T12:28:22.508Z,0.17
2022-12-11T12:29:21.425Z,0.17
2022-12-11T12:30:23.188Z,0.25
2022-12-11T12:31:21.460Z,0.19
2022-12-11T12:32:21.398Z,0.22
2022-12-11T12:33:21.421Z,0.31
2022-12-11T12:34:21.443Z,0.34
2022-12-11T12:35:21.400Z,0.22
2022-12-11T12:36:21.384Z,0.26
2022-12-11T12:37:21.377Z,0.30
2022-12-11T12:38:21.367Z,0.31
2022-12-11T12:39:21.351Z,0.38
2022-12-11T12:40:21.407Z,0.30
2022-12-11T12:41:21.323Z,0.28
2022-12-11T12:42:21.356Z,0.43
2022-12-11T12:43:21.342Z,0.35
2022-12-11T12:44:21.376Z,0.38
2022-12-11T12:45:21.330Z,0.31
2022-12-11T12:46:21.397Z,0.23
2022-12-11T12:47:21.294Z,0.30
2022-12-11T12:48:21.283Z,0.33
2022-12-11T12:49:21.290Z,0.33
2022-12-11T12:50:21.279Z,0.44
2022-12-11T12:51:21.286Z,0.51
2022-12-11T12:52:21.359Z,0.51
2022-12-11T12:53:21.232Z,0.49
2022-12-11T12:54:21.259Z,0.60
2022-12-11T12:55:21.236Z,0.59
2022-12-11T12:56:21.229Z,0.67
2022-12-11T12:57:21.228Z,0.63